Terminal Aerodrome Forecast
Issued by NWS Wichita, KS

Home | Current Version | Previous Version | Graphics & Text | Print | Product List | Glossary On
Versions: 1 2 3 4 5 6 7 8 9 10 11 12 13 14 15 16 17 18 19 20 21
000
FTUS43 KICT 272151 AAC
TAFICT
TAF AMD
KICT 272151Z 2722/2818 18009KT P6SM VCTS SCT035 BKN050CB
      TEMPO 2722/2724 VRB25G35KT 3SM +TSRA BKN025CB
     FM280100 19007KT P6SM SCT035 BKN250
     FM280900 17005KT 5SM BR SCT015=

USA.gov is the U.S. government's official web portal to all federal, state and local government web resources and services.